Pompano Beach, FL (33064)

8:24 PM EDT on July 23, 2016 (GMT -0400)
| | Change Station

Elev -9999 ft 0.00 °N, 0.00 °E | Updated

Mostly Cloudy
Mostly Cloudy
78 °F
Feels Like 78 °F
N
3
Wind Variable Wind from SSW
Gusts mph

Today
High -- | Low -- °F
--% Chance of Precip.
Yesterday
High -- | Low -- °F
Precip. -- in
Pressure 30.02 in
Visibility 10.0 miles
Clouds Scattered Clouds 2300 ft
Mostly Cloudy 12000 ft
Dew Point 73 °F
Humidity 85%
Rainfall --
Snow Depth Not available.
6:41 AM 8:12 PM
Waning Gibbous, 81% visible
METAR KPMP 232353Z 13004KT 10SM SCT023 BKN120 29/23 A3002 RMK AO2 LTG DSNT SW SLP165 60000 T02890233 10294 20283 53007
Pressure 30.02 in
Visibility 10.0 miles
Clouds Scattered Clouds 2300 ft
Mostly Cloudy 12000 ft
Dew Point 73 °F
Humidity 85%
Rainfall --
Snow Depth Not available.
6:41 AM 8:12 PM
Waning Gibbous, 81% visible
METAR KPMP 232353Z 13004KT 10SM SCT023 BKN120 29/23 A3002 RMK AO2 LTG DSNT SW SLP165 60000 T02890233 10294 20283 53007

10-Day Weather Forecast

Almanac

Astronomy

Jul. 23, 2016 Rise Set
Actual Time
Civil Twilight
Nautical Twilight
Astronomical Twilight
Moon
Length of Visible Light
Length of Day
Tomorrow will be .
, % of the Moon is Illuminated

Today's Extremes

State Highs State Lows

Community

WunderPhotos

Upload Photos

1,926,979 photos uploaded!

WunderBlog® & News

Nearby

Air Quality

  Air Quality AQ Index Pollutant
Not available.

Snow Depth

Station Depth Elevation

Earthquake Activity

City Distance Mag. Time & Date
Minimum magnitude displayed is 2.5.

Coastal Water Temperatures

Place Temperature

Stations

Nearby Weather Stations

Station Location Temp. Windchill Dew Point Humidity Wind Precip. Elev Updated Type
                   

Watches & Warnings

There are currently no watches in effect.